createdAt,value
2022-12-01T00:01:37.145Z,80.38
2022-12-01T00:04:05.767Z,80.75
2022-12-01T00:06:34.098Z,80.65
2022-12-01T00:09:20.794Z,80.87
2022-12-01T00:11:49.274Z,81.17
2022-12-01T00:14:18.047Z,81.21
2022-12-01T00:16:46.406Z,80.89
2022-12-01T00:19:14.883Z,80.82
2022-12-01T00:21:43.193Z,80.78
2022-12-01T00:24:12.614Z,80.79
2022-12-01T00:26:40.994Z,80.82
2022-12-01T00:29:09.426Z,80.91
2022-12-01T00:31:37.995Z,80.56
2022-12-01T00:34:11.109Z,80.32
2022-12-01T00:36:39.860Z,80.38
2022-12-01T00:39:08.808Z,80.45
2022-12-01T00:41:37.090Z,80.02
2022-12-01T00:44:05.675Z,80.37
2022-12-01T00:46:34.226Z,80.27
2022-12-01T00:49:02.539Z,80.33
2022-12-01T00:51:30.877Z,80.05
2022-12-01T00:53:59.327Z,80.13
2022-12-01T00:56:27.652Z,80.02
2022-12-01T00:58:56.252Z,80.09
2022-12-01T01:01:24.696Z,80.30
2022-12-01T01:03:53.118Z,79.98
2022-12-01T01:06:21.483Z,80.04
2022-12-01T01:08:49.912Z,80.02
2022-12-01T01:11:18.330Z,80.11
2022-12-01T01:13:46.997Z,80.12
2022-12-01T01:16:19.085Z,80.08
2022-12-01T01:18:47.931Z,79.80
2022-12-01T01:21:18.820Z,79.87
2022-12-01T01:23:48.424Z,79.97
2022-12-01T01:26:18.201Z,80.35
2022-12-01T01:28:47.771Z,80.33
2022-12-01T01:31:21.814Z,80.04
2022-12-01T01:33:52.446Z,79.67
2022-12-01T01:36:20.987Z,79.54
2022-12-01T01:38:51.825Z,79.44
2022-12-01T01:41:21.145Z,79.23
2022-12-01T01:43:52.791Z,79.29
2022-12-01T01:46:28.249Z,78.90
2022-12-01T01:49:05.086Z,79.26
2022-12-01T01:51:49.705Z,79.01
2022-12-01T01:54:28.600Z,78.90
2022-12-01T01:57:00.323Z,79.09
2022-12-01T01:59:34.257Z,78.87
2022-12-01T02:02:09.035Z,79.04
2022-12-01T02:04:51.482Z,78.85
2022-12-01T02:07:20.900Z,78.98
2022-12-01T02:09:49.507Z,78.61
2022-12-01T02:12:40.334Z,78.75
2022-12-01T02:15:30.400Z,78.67
2022-12-01T02:18:38.478Z,78.79
2022-12-01T02:21:23.441Z,78.77
2022-12-01T02:24:26.176Z,78.79
2022-12-01T02:27:17.159Z,78.57
2022-12-01T02:30:03.926Z,78.81
2022-12-01T02:32:44.241Z,78.45
2022-12-01T02:35:21.761Z,78.66
2022-12-01T02:38:14.477Z,78.78
2022-12-01T02:41:07.481Z,78.62
2022-12-01T02:43:46.493Z,78.60
2022-12-01T02:46:39.614Z,78.93
2022-12-01T02:49:19.158Z,78.84
2022-12-01T02:51:48.854Z,78.83
2022-12-01T02:54:18.065Z,78.85
2022-12-01T02:56:46.608Z,78.86
2022-12-01T02:59:15.311Z,78.65
2022-12-01T03:02:10.177Z,78.75
2022-12-01T03:05:10.117Z,78.53
2022-12-01T03:08:01.003Z,78.86
2022-12-01T03:10:38.886Z,78.79
2022-12-01T03:13:12.891Z,78.71
2022-12-01T03:16:06.779Z,78.73
2022-12-01T03:18:40.126Z,78.75
2022-12-01T03:21:23.791Z,78.18
2022-12-01T03:24:03.263Z,77.81
2022-12-01T03:26:35.557Z,77.90
2022-12-01T03:29:08.763Z,77.83
2022-12-01T03:31:44.654Z,77.75
2022-12-01T03:34:18.116Z,77.81
2022-12-01T03:36:49.756Z,77.68
2022-12-01T03:39:23.470Z,77.58
2022-12-01T03:42:11.759Z,77.77
2022-12-01T03:44:53.696Z,77.48
2022-12-01T03:47:25.376Z,77.63
2022-12-01T03:49:54.775Z,77.51
2022-12-01T03:52:35.046Z,77.47
2022-12-01T03:55:22.760Z,77.65
2022-12-01T03:58:04.419Z,77.96
2022-12-01T04:00:33.490Z,77.98
2022-12-01T04:03:04.313Z,78.07
2022-12-01T04:05:34.720Z,78.20
2022-12-01T04:08:02.974Z,78.40
2022-12-01T04:10:33.136Z,78.36
2022-12-01T04:13:01.451Z,78.23
2022-12-01T04:15:29.850Z,78.18
2022-12-01T04:17:58.139Z,78.34
2022-12-01T04:20:26.439Z,78.22
2022-12-01T04:22:54.563Z,78.23
2022-12-01T04:25:22.698Z,78.31
2022-12-01T04:27:50.817Z,78.58
2022-12-01T04:30:19.047Z,78.43
2022-12-01T04:32:48.042Z,78.53
2022-12-01T04:35:16.526Z,78.60
2022-12-01T04:37:44.894Z,78.59
2022-12-01T04:40:13.106Z,78.89
2022-12-01T04:42:41.257Z,78.68
2022-12-01T04:45:10.099Z,78.78
2022-12-01T04:47:38.222Z,78.86
2022-12-01T04:50:06.796Z,78.71
2022-12-01T04:52:37.439Z,78.92
2022-12-01T04:55:06.063Z,78.62
2022-12-01T04:57:34.249Z,78.81
2022-12-01T05:00:02.500Z,78.70
2022-12-01T05:02:30.725Z,78.73
2022-12-01T05:04:58.953Z,78.30
2022-12-01T05:07:27.135Z,78.49
2022-12-01T05:09:55.312Z,78.43
2022-12-01T05:12:24.039Z,78.46
2022-12-01T05:14:52.444Z,78.52
2022-12-01T05:17:20.617Z,78.33
2022-12-01T05:20:07.170Z,78.47
2022-12-01T05:23:03.762Z,78.53
2022-12-01T05:25:23.402Z,78.53
2022-12-01T05:27:51.559Z,78.57
2022-12-01T05:30:23.056Z,78.34
2022-12-01T05:32:53.935Z,78.37
2022-12-01T05:35:22.210Z,78.21
2022-12-01T05:37:50.660Z,77.90
2022-12-01T05:40:18.902Z,78.14
2022-12-01T05:42:47.400Z,78.09
2022-12-01T05:45:15.604Z,78.02
2022-12-01T05:47:44.312Z,78.06
2022-12-01T05:50:12.420Z,78.07
2022-12-01T05:52:40.880Z,77.87
2022-12-01T05:55:11.011Z,77.93
2022-12-01T05:57:39.176Z,78.05
2022-12-01T06:00:08.325Z,77.71
2022-12-01T06:02:42.302Z,77.89
2022-12-01T06:05:10.821Z,78.15
2022-12-01T06:07:40.538Z,78.39
2022-12-01T06:10:10.616Z,78.19
2022-12-01T06:12:39.297Z,78.26
2022-12-01T06:15:08.579Z,78.57
2022-12-01T06:17:40.167Z,78.56
2022-12-01T06:20:11.071Z,78.68
2022-12-01T06:22:39.480Z,79.05
2022-12-01T06:25:08.314Z,78.99
2022-12-01T06:27:36.849Z,79.29
2022-12-01T06:30:06.074Z,79.49
2022-12-01T06:32:34.308Z,79.45
2022-12-01T06:35:03.116Z,79.70
2022-12-01T06:37:31.322Z,79.66
2022-12-01T06:39:59.562Z,79.93
2022-12-01T06:42:30.673Z,80.38
2022-12-01T06:44:58.925Z,80.29
2022-12-01T06:47:27.302Z,80.49
2022-12-01T06:50:00.679Z,80.67
2022-12-01T06:52:28.970Z,80.69
2022-12-01T06:54:57.213Z,80.81
2022-12-01T06:57:26.291Z,80.74
2022-12-01T06:59:55.082Z,81.13
2022-12-01T07:02:24.036Z,81.13
2022-12-01T07:04:54.618Z,81.49
2022-12-01T07:07:23.089Z,81.84
2022-12-01T07:09:51.681Z,81.80
2022-12-01T07:12:20.167Z,81.86
2022-12-01T07:14:48.485Z,82.01
2022-12-01T07:17:16.825Z,81.91
2022-12-01T07:19:45.766Z,82.04
2022-12-01T07:22:16.022Z,82.22
2022-12-01T07:24:44.599Z,82.43
2022-12-01T07:27:12.700Z,82.09
2022-12-01T07:29:40.866Z,82.43
2022-12-01T07:32:09.120Z,82.55
2022-12-01T07:34:42.110Z,82.53
2022-12-01T07:37:10.899Z,82.68
2022-12-01T07:39:39.246Z,82.66
2022-12-01T07:42:07.774Z,82.42
2022-12-01T07:44:36.160Z,82.86
2022-12-01T07:47:04.604Z,82.89
2022-12-01T07:49:34.447Z,82.58
2022-12-01T07:52:02.844Z,82.73
2022-12-01T07:54:31.196Z,82.57
2022-12-01T07:56:59.860Z,82.52
2022-12-01T07:59:28.437Z,82.43
2022-12-01T08:01:57.133Z,82.53
2022-12-01T08:04:26.763Z,82.77
2022-12-01T08:06:55.239Z,82.60
2022-12-01T08:09:24.019Z,82.32
2022-12-01T08:11:52.291Z,82.65
2022-12-01T08:14:20.892Z,82.68
2022-12-01T08:16:49.548Z,82.59
2022-12-01T08:19:17.728Z,82.23
2022-12-01T08:21:46.202Z,82.19
2022-12-01T08:24:14.360Z,82.36
2022-12-01T08:26:42.609Z,82.20
2022-12-01T08:29:13.545Z,82.53
2022-12-01T08:31:44.074Z,82.46
2022-12-01T08:34:12.343Z,82.49
2022-12-01T08:36:40.706Z,82.48
2022-12-01T08:39:09.630Z,82.70
2022-12-01T08:41:38.038Z,82.28
2022-12-01T08:44:06.767Z,82.29
2022-12-01T08:46:36.147Z,82.57
2022-12-01T08:49:06.319Z,82.34
2022-12-01T08:51:36.033Z,81.93
2022-12-01T08:54:05.243Z,81.98
2022-12-01T08:56:40.135Z,82.35
2022-12-01T08:59:09.558Z,82.18
2022-12-01T09:01:52.263Z,82.05
2022-12-01T09:04:23.217Z,81.96
2022-12-01T09:06:55.358Z,81.90
2022-12-01T09:09:27.398Z,82.29
2022-12-01T09:11:56.994Z,82.08
2022-12-01T09:14:25.433Z,81.41
2022-12-01T09:16:53.828Z,81.63
2022-12-01T09:19:25.004Z,81.74
2022-12-01T09:21:53.692Z,81.98
2022-12-01T09:24:22.197Z,81.86
2022-12-01T09:26:54.634Z,81.08
2022-12-01T09:29:23.412Z,81.40
2022-12-01T09:31:51.924Z,81.30
2022-12-01T09:34:20.835Z,81.03
2022-12-01T09:36:49.547Z,81.12
2022-12-01T09:39:20.055Z,81.00
2022-12-01T09:41:54.475Z,81.17
2022-12-01T09:44:31.913Z,80.98
2022-12-01T09:47:24.966Z,81.14
2022-12-01T09:50:10.976Z,80.95
2022-12-01T09:53:06.940Z,80.62
2022-12-01T09:55:36.369Z,80.64
2022-12-01T09:58:05.946Z,80.46
2022-12-01T10:00:41.081Z,80.81
2022-12-01T10:03:09.976Z,80.42
2022-12-01T10:06:10.431Z,80.49
2022-12-01T10:08:39.662Z,80.06
2022-12-01T10:11:26.965Z,79.52
2022-12-01T10:13:55.420Z,80.10
2022-12-01T10:16:30.968Z,79.57
2022-12-01T10:19:07.504Z,79.24
2022-12-01T10:22:14.378Z,79.44
2022-12-01T10:24:56.247Z,79.69
2022-12-01T10:27:52.933Z,79.14
2022-12-01T10:30:24.010Z,79.28
2022-12-01T10:32:55.530Z,79.48
2022-12-01T10:35:27.484Z,79.15
2022-12-01T10:38:02.860Z,79.24
2022-12-01T10:40:35.387Z,78.81
2022-12-01T10:43:03.686Z,78.56
2022-12-01T10:45:36.020Z,78.78
2022-12-01T10:48:21.935Z,78.12
2022-12-01T10:51:14.151Z,78.13
2022-12-01T10:53:42.735Z,78.14
2022-12-01T10:56:22.156Z,78.28
2022-12-01T10:58:52.060Z,78.13
2022-12-01T11:01:24.994Z,77.72
2022-12-01T11:04:20.020Z,77.56
2022-12-01T11:06:51.805Z,78.27
2022-12-01T11:09:28.162Z,77.29
2022-12-01T11:12:02.006Z,77.06
2022-12-01T11:14:33.226Z,77.38
2022-12-01T11:17:16.748Z,76.59
2022-12-01T11:19:45.558Z,76.42
2022-12-01T11:22:30.534Z,76.71
2022-12-01T11:25:04.617Z,76.97
2022-12-01T11:27:36.962Z,76.33
2022-12-01T11:30:20.478Z,75.84
2022-12-01T11:33:03.616Z,76.03
2022-12-01T11:35:38.209Z,75.48
2022-12-01T11:38:29.410Z,75.24
2022-12-01T11:40:57.939Z,75.41
2022-12-01T11:43:36.930Z,75.43
2022-12-01T11:46:09.380Z,75.35
2022-12-01T11:48:38.325Z,75.50
2022-12-01T11:51:09.627Z,75.10
2022-12-01T11:53:38.125Z,74.77
2022-12-01T11:56:17.847Z,74.98
2022-12-01T11:58:49.164Z,74.68
2022-12-01T12:01:29.649Z,74.59
2022-12-01T12:04:19.027Z,74.81
2022-12-01T12:06:56.456Z,74.33
2022-12-01T12:09:27.958Z,74.41
2022-12-01T12:12:11.789Z,74.20
2022-12-01T12:14:40.043Z,73.55
2022-12-01T12:17:19.650Z,73.63
2022-12-01T12:20:07.855Z,74.49
2022-12-01T12:22:55.875Z,74.14
2022-12-01T12:25:37.895Z,74.08
2022-12-01T12:28:41.190Z,74.52
2022-12-01T12:31:24.707Z,74.13
2022-12-01T12:34:12.798Z,74.01
2022-12-01T12:36:50.299Z,73.63
2022-12-01T12:39:41.818Z,73.55
2022-12-01T12:42:22.723Z,74.40
2022-12-01T12:45:06.439Z,74.00
2022-12-01T12:47:40.528Z,74.23
2022-12-01T12:50:28.536Z,74.22
2022-12-01T12:53:03.707Z,74.48
2022-12-01T12:55:39.658Z,74.74
2022-12-01T12:58:11.571Z,75.03
2022-12-01T13:00:46.829Z,75.38
2022-12-01T13:03:29.193Z,76.14
2022-12-01T13:06:11.858Z,75.89
2022-12-01T13:08:48.204Z,76.08
2022-12-01T13:11:25.719Z,76.24
2022-12-01T13:14:24.868Z,75.98
2022-12-01T13:16:57.489Z,76.58
2022-12-01T13:19:30.307Z,76.48
2022-12-01T13:22:01.440Z,76.41
2022-12-01T13:24:31.458Z,76.12
2022-12-01T13:27:13.373Z,76.79
2022-12-01T13:29:47.180Z,76.02
2022-12-01T13:32:40.695Z,76.64
2022-12-01T13:35:27.833Z,76.00
2022-12-01T13:38:14.552Z,76.66
2022-12-01T13:40:43.162Z,76.08
2022-12-01T13:43:19.905Z,76.69
2022-12-01T13:45:49.952Z,76.44
2022-12-01T13:48:52.280Z,76.68
2022-12-01T13:51:20.713Z,77.07
2022-12-01T13:53:58.319Z,77.02
2022-12-01T13:56:46.552Z,77.04
2022-12-01T13:59:40.032Z,77.63
2022-12-01T14:02:19.490Z,77.84
2022-12-01T14:04:48.726Z,78.61
2022-12-01T14:07:32.383Z,78.45
2022-12-01T14:10:29.257Z,78.44
2022-12-01T14:13:04.973Z,78.76
2022-12-01T14:15:42.442Z,78.70
2022-12-01T14:18:35.564Z,78.53
2022-12-01T14:21:07.075Z,78.80
2022-12-01T14:23:58.684Z,78.69
2022-12-01T14:26:29.891Z,78.70
2022-12-01T14:29:03.117Z,79.24
2022-12-01T14:31:34.295Z,79.23
2022-12-01T14:34:08.530Z,78.99
2022-12-01T14:36:48.700Z,79.09
2022-12-01T14:39:20.032Z,79.62
2022-12-01T14:41:57.626Z,79.20
2022-12-01T14:44:38.277Z,78.93
2022-12-01T14:47:27.879Z,79.04
2022-12-01T14:50:01.764Z,79.69
2022-12-01T14:52:36.069Z,79.26
2022-12-01T14:55:13.109Z,79.83
2022-12-01T14:57:46.365Z,79.83
2022-12-01T15:00:19.412Z,79.61
2022-12-01T15:03:01.437Z,79.49
2022-12-01T15:05:32.794Z,79.50
2022-12-01T15:11:24.083Z,80.40
2022-12-01T15:13:55.415Z,80.17
2022-12-01T15:16:27.057Z,80.03
2022-12-01T15:18:55.699Z,80.11
2022-12-01T15:21:27.173Z,80.23
2022-12-01T15:24:02.975Z,80.22
2022-12-01T15:26:34.790Z,80.24
2022-12-01T15:29:16.675Z,80.31
2022-12-01T15:31:49.352Z,80.20
2022-12-01T15:34:21.621Z,80.79
2022-12-01T15:36:52.440Z,80.44
2022-12-01T15:39:31.522Z,80.55
2022-12-01T15:42:00.225Z,80.59
2022-12-01T15:44:32.178Z,80.95
2022-12-01T15:47:20.695Z,80.44
2022-12-01T15:49:49.729Z,80.63
2022-12-01T15:52:18.882Z,80.73
2022-12-01T15:54:49.069Z,80.89
2022-12-01T15:57:20.511Z,80.72
2022-12-01T15:59:57.523Z,80.96
2022-12-01T16:02:32.151Z,80.94
2022-12-01T16:05:27.315Z,81.07
2022-12-01T16:10:44.931Z,81.46
2022-12-01T16:13:59.943Z,81.47
2022-12-01T16:16:34.695Z,81.38
2022-12-01T16:19:22.708Z,81.28
2022-12-01T16:22:01.756Z,81.58
2022-12-01T16:24:36.097Z,81.55
2022-12-01T16:27:22.938Z,81.18
2022-12-01T16:30:21.212Z,81.12
2022-12-01T16:32:49.877Z,81.47
2022-12-01T16:35:34.051Z,81.78
2022-12-01T16:38:13.428Z,81.65
2022-12-01T16:40:44.217Z,81.30
2022-12-01T16:43:15.934Z,81.66
2022-12-01T16:45:46.590Z,81.78
2022-12-01T16:48:14.959Z,81.90
2022-12-01T16:50:43.327Z,81.96
2022-12-01T16:53:12.887Z,81.88
2022-12-01T16:55:56.335Z,82.05
2022-12-01T16:58:25.558Z,81.89
2022-12-01T17:00:54.605Z,82.09
2022-12-01T17:03:27.869Z,82.12
2022-12-01T17:05:59.038Z,82.20
2022-12-01T17:08:27.457Z,82.22
2022-12-01T17:10:56.221Z,82.41
2022-12-01T17:13:24.788Z,82.32
2022-12-01T17:15:54.769Z,82.37
2022-12-01T17:18:24.276Z,82.19
2022-12-01T17:21:00.895Z,82.22
2022-12-01T17:23:29.911Z,82.29
2022-12-01T17:25:58.684Z,82.33
2022-12-01T17:28:27.441Z,82.58
2022-12-01T17:31:00.515Z,82.16
2022-12-01T17:33:29.515Z,82.36
2022-12-01T17:36:11.205Z,82.22
2022-12-01T17:38:42.183Z,82.03
2022-12-01T17:41:22.380Z,82.30
2022-12-01T17:43:50.859Z,82.08
2022-12-01T17:46:19.260Z,81.80
2022-12-01T17:48:47.620Z,82.18
2022-12-01T17:51:16.041Z,81.68
2022-12-01T17:53:44.510Z,82.08
2022-12-01T17:56:14.787Z,82.07
2022-12-01T17:58:43.597Z,82.07
2022-12-01T18:01:16.270Z,82.28
2022-12-01T18:03:45.287Z,81.88
2022-12-01T18:06:14.713Z,81.79
2022-12-01T18:08:43.664Z,81.74
2022-12-01T18:11:16.197Z,81.87
2022-12-01T18:13:47.161Z,81.75
2022-12-01T18:16:25.156Z,81.94
2022-12-01T18:18:54.950Z,81.57
2022-12-01T18:21:24.188Z,81.55
2022-12-01T18:24:03.054Z,81.83
2022-12-01T18:26:33.766Z,81.98
2022-12-01T18:29:05.168Z,81.47
2022-12-01T18:31:34.245Z,81.95
2022-12-01T18:34:03.860Z,81.70
2022-12-01T18:36:35.255Z,81.74
2022-12-01T18:39:07.396Z,81.28
2022-12-01T18:41:36.477Z,81.19
2022-12-01T18:44:05.401Z,81.29
2022-12-01T18:46:34.532Z,81.26
2022-12-01T18:49:04.880Z,80.90
2022-12-01T18:51:36.063Z,81.17
2022-12-01T18:54:06.854Z,80.82
2022-12-01T18:56:35.878Z,80.86
2022-12-01T18:59:07.236Z,80.90
2022-12-01T19:01:39.986Z,80.99
2022-12-01T19:04:09.843Z,81.03
2022-12-01T19:06:40.505Z,80.73
2022-12-01T19:09:11.023Z,80.80
2022-12-01T19:11:40.886Z,80.76
2022-12-01T19:14:15.715Z,80.83
2022-12-01T19:16:44.952Z,80.49
2022-12-01T19:19:13.641Z,80.67
2022-12-01T19:21:42.967Z,80.89
2022-12-01T19:24:11.793Z,81.16
2022-12-01T19:26:40.440Z,80.91
2022-12-01T19:29:09.093Z,81.10
2022-12-01T19:31:37.959Z,80.92
2022-12-01T19:34:06.647Z,80.89
2022-12-01T19:36:34.972Z,81.07
2022-12-01T19:39:07.747Z,81.07
2022-12-01T19:41:39.174Z,81.16
2022-12-01T19:44:07.616Z,81.38
2022-12-01T19:46:36.145Z,80.91
2022-12-01T19:49:05.766Z,80.95
2022-12-01T19:51:37.263Z,81.12
2022-12-01T19:54:08.724Z,81.15
2022-12-01T19:56:36.976Z,81.29
2022-12-01T19:59:08.188Z,81.37
2022-12-01T20:01:38.376Z,81.34
2022-12-01T20:04:07.204Z,81.45
2022-12-01T20:06:37.170Z,81.67
2022-12-01T20:09:07.443Z,81.79
2022-12-01T20:11:37.025Z,81.81
2022-12-01T20:14:07.561Z,82.16
2022-12-01T20:16:36.378Z,82.12
2022-12-01T20:19:06.184Z,82.03
2022-12-01T20:21:42.308Z,82.11
2022-12-01T20:24:13.729Z,82.25
2022-12-01T20:26:49.402Z,82.29
2022-12-01T20:29:21.365Z,82.44
2022-12-01T20:31:51.417Z,82.27
2022-12-01T20:34:26.693Z,82.17
2022-12-01T20:36:55.945Z,82.14
2022-12-01T20:39:25.152Z,82.33
2022-12-01T20:41:54.032Z,82.43
2022-12-01T20:44:22.636Z,82.16
2022-12-01T20:46:51.140Z,82.20
2022-12-01T20:49:22.081Z,82.15
2022-12-01T20:51:50.840Z,82.09
2022-12-01T20:54:30.318Z,82.04
2022-12-01T20:57:03.456Z,81.98
2022-12-01T20:59:32.398Z,81.99
2022-12-01T21:02:00.928Z,82.35
2022-12-01T21:04:32.763Z,82.20
2022-12-01T21:07:01.311Z,82.14
2022-12-01T21:09:31.683Z,81.84
2022-12-01T21:12:22.168Z,82.16
2022-12-01T21:15:06.043Z,82.02
2022-12-01T21:17:46.942Z,82.12
2022-12-01T21:20:21.827Z,81.97
2022-12-01T21:22:54.173Z,82.01
2022-12-01T21:25:24.947Z,81.77
2022-12-01T21:28:02.584Z,81.82
2022-12-01T21:30:31.438Z,82.10
2022-12-01T21:33:27.908Z,82.00
2022-12-01T21:35:56.555Z,81.66
2022-12-01T21:38:25.383Z,81.88
2022-12-01T21:40:54.552Z,81.99
2022-12-01T21:43:25.971Z,81.92
2022-12-01T21:46:07.661Z,82.12
2022-12-01T21:48:37.223Z,82.02
2022-12-01T21:51:23.485Z,82.03
2022-12-01T21:53:58.761Z,81.92
2022-12-01T21:56:31.797Z,81.89
2022-12-01T21:59:12.932Z,82.13
2022-12-01T22:01:42.435Z,82.00
2022-12-01T22:04:20.896Z,81.95
2022-12-01T22:06:53.256Z,82.04
2022-12-01T22:09:35.263Z,82.10
2022-12-01T22:12:28.069Z,82.44
2022-12-01T22:15:14.379Z,82.29
2022-12-01T22:17:42.723Z,81.93
2022-12-01T22:20:22.381Z,82.22
2022-12-01T22:22:50.700Z,82.27
2022-12-01T22:25:26.436Z,82.41
2022-12-01T22:27:56.452Z,82.12
2022-12-01T22:30:24.838Z,82.12
2022-12-01T22:33:06.506Z,82.04
2022-12-01T22:35:44.999Z,82.19
2022-12-01T22:38:36.901Z,82.20
2022-12-01T22:41:14.560Z,82.14
2022-12-01T22:43:56.593Z,82.26
2022-12-01T22:46:33.270Z,82.05
2022-12-01T22:49:10.508Z,82.33
2022-12-01T22:51:49.959Z,82.20
2022-12-01T22:54:26.614Z,81.82
2022-12-01T22:57:08.551Z,82.05
2022-12-01T22:59:40.697Z,81.78
2022-12-01T23:02:29.710Z,81.65
2022-12-01T23:05:14.607Z,81.60
2022-12-01T23:07:43.866Z,81.94
2022-12-01T23:10:20.169Z,81.67
2022-12-01T23:12:50.848Z,81.75
2022-12-01T23:15:37.962Z,82.18
2022-12-01T23:18:16.617Z,81.78
2022-12-01T23:20:47.702Z,81.75
2022-12-01T23:23:25.809Z,81.41
2022-12-01T23:25:54.864Z,81.14
2022-12-01T23:28:24.128Z,81.50
2022-12-01T23:30:57.106Z,81.61
2022-12-01T23:33:31.490Z,81.70
2022-12-01T23:36:13.649Z,81.35
2022-12-01T23:38:47.260Z,81.59
2022-12-01T23:41:25.605Z,81.99
2022-12-01T23:43:55.881Z,81.79
2022-12-01T23:46:27.550Z,81.39
2022-12-01T23:49:07.321Z,82.14
2022-12-01T23:51:38.896Z,82.16
2022-12-01T23:54:17.612Z,81.76
2022-12-01T23:56:52.916Z,81.75
2022-12-01T23:59:22.203Z,81.73
